Asian Moon — C4EQ2 — position and weather

sailwx.info

Track history (hours):
 
Tides and Currents Weather Stations Pressure Air Temp Water Temp Dewpoint Dewpoint Depression Visibility Wind Speed Wind Dir Waves Ship Positions

Asian Moon

Last reported at 2018-Apr-27 09:08 UTC. Time now 2018-May-20 09:54 UTC.
Position N 16°10' W 062°51'.
Warning: this ship's position is 23 days out of date.

Length 148 m; draft 9 m.

Type: Cargo ship. MMSI: 209570000.

Date/timePositionNaut miles runAvg speedWind from/ knotsBaromVisibWave heightAir tempDewpointWater temp
2018-Apr-27 09:08N 16°10' W 062°51'314.6
2018-Apr-27 08:57N 16°11' W 062°49'614.5
2018-Apr-27 08:30N 16°14' W 062°43'714.5
2018-Apr-27 08:00N 16°18' W 062°36'714.7
2018-Apr-27 07:30N 16°21' W 062°30'715.1
2018-Apr-27 07:00N 16°24' W 062°23'815.6
2018-Apr-27 06:31N 16°27' W 062°15'815.6
2018-Apr-27 06:00N 16°31' W 062°08'815.8
2018-Apr-27 05:31N 16°34' W 062°00'815.8
2018-Apr-27 05:01N 16°37' W 061°53'815.4
2018-Apr-27 04:30N 16°41' W 061°46'815.8
2018-Apr-27 04:00N 16°44' W 061°38'815.6
2018-Apr-27 03:31N 16°48' W 061°31'815.5
2018-Apr-27 03:01N 16°53' W 061°25'815.6
2018-Apr-27 02:30N 16°58' W 061°19'815.4
2018-Apr-27 02:01N 17°03' W 061°12'815.2
2018-Apr-27 01:31N 17°07' W 061°06'715.0
2018-Apr-27 01:00N 17°11' W 060°59'  
2018-Apr-21 06:11N 37°10' W 028°39'314.9
2018-Apr-21 05:58N 37°12' W 028°35'714.7
2018-Apr-21 05:29N 37°16' W 028°28'714.8
2018-Apr-21 04:59N 37°21' W 028°21'714.7
2018-Apr-21 04:30N 37°25' W 028°13'714.5
2018-Apr-21 04:00N 37°29' W 028°06'714.9
2018-Apr-21 03:30N 37°33' W 027°58'815.1
2018-Apr-21 03:00N 37°37' W 027°50'815.4
2018-Apr-21 02:30N 37°42' W 027°42'815.3
2018-Apr-21 02:00N 37°46' W 027°34'815.1
2018-Apr-21 01:30N 37°50' W 027°26'815.2
2018-Apr-21 01:00N 37°54' W 027°18'815.4
2018-Apr-21 00:30N 37°58' W 027°10'815.7
2018-Apr-21 00:00N 38°03' W 027°02'815.5
2018-Apr-20 23:30N 38°08' W 026°54'1115.6
2018-Apr-20 22:49N 38°14' W 026°43'  
Track history (hours):
 
Tides and Currents Weather Stations Pressure Air Temp Water Temp Dewpoint Dewpoint Depression Visibility Wind Speed Wind Dir Waves Ship Positions

Asian Moon

Last reported at 2018-Apr-27 09:08 UTC. Time now 2018-May-20 09:54 UTC.
Position N 16°10' W 062°51'.
Warning: this ship's position is 23 days out of date.

Length 148 m; draft 9 m.

Type: Cargo ship. MMSI: 209570000.

Date/timePositionNaut miles runAvg speedWind from/ knotsBaromVisibWave heightAir tempDewpointWater temp
2018-Apr-27 09:08N 16°10' W 062°51'314.6
2018-Apr-27 08:57N 16°11' W 062°49'614.5
2018-Apr-27 08:30N 16°14' W 062°43'714.5
2018-Apr-27 08:00N 16°18' W 062°36'714.7
2018-Apr-27 07:30N 16°21' W 062°30'715.1
2018-Apr-27 07:00N 16°24' W 062°23'815.6
2018-Apr-27 06:31N 16°27' W 062°15'815.6
2018-Apr-27 06:00N 16°31' W 062°08'815.8
2018-Apr-27 05:31N 16°34' W 062°00'815.8
2018-Apr-27 05:01N 16°37' W 061°53'815.4
2018-Apr-27 04:30N 16°41' W 061°46'815.8
2018-Apr-27 04:00N 16°44' W 061°38'815.6
2018-Apr-27 03:31N 16°48' W 061°31'815.5
2018-Apr-27 03:01N 16°53' W 061°25'815.6
2018-Apr-27 02:30N 16°58' W 061°19'815.4
2018-Apr-27 02:01N 17°03' W 061°12'815.2
2018-Apr-27 01:31N 17°07' W 061°06'715.0
2018-Apr-27 01:00N 17°11' W 060°59'  
2018-Apr-21 06:11N 37°10' W 028°39'314.9
2018-Apr-21 05:58N 37°12' W 028°35'714.7
2018-Apr-21 05:29N 37°16' W 028°28'714.8
2018-Apr-21 04:59N 37°21' W 028°21'714.7
2018-Apr-21 04:30N 37°25' W 028°13'714.5
2018-Apr-21 04:00N 37°29' W 028°06'714.9
2018-Apr-21 03:30N 37°33' W 027°58'815.1
2018-Apr-21 03:00N 37°37' W 027°50'815.4
2018-Apr-21 02:30N 37°42' W 027°42'815.3
2018-Apr-21 02:00N 37°46' W 027°34'815.1
2018-Apr-21 01:30N 37°50' W 027°26'815.2
2018-Apr-21 01:00N 37°54' W 027°18'815.4
2018-Apr-21 00:30N 37°58' W 027°10'815.7
2018-Apr-21 00:00N 38°03' W 027°02'815.5
2018-Apr-20 23:30N 38°08' W 026°54'1115.6
2018-Apr-20 22:49N 38°14' W 026°43'  

Dump ship's entire track history